Time;durP1;ratioP1;P1;durP2;ratioP2;P2;SDS_P1;SDS_P2;PMS_P1;PMS_P2;Temp;Humidity;BMP_temperature;BMP_pressure;BME280_temperature;BME280_humidity;BME280_pressure;Samples;Min_cycle;Max_cycle;Signal;HPM_P1;HPM_P2
2023/05/12 00:00:18;;;;;;;4.05;1.80;;;;;;;23.28;37.22;99697.13;4260880;33;32815;-65
2023/05/12 00:02:46;;;;;;;5.47;2.20;;;;;;;23.27;37.26;99698.19;4260951;33;34006;-66
2023/05/12 00:05:13;;;;;;;5.65;2.28;;;;;;;23.28;37.27;99693.56;4261278;33;34096;-65
2023/05/12 00:07:41;;;;;;;3.60;2.00;;;;;;;23.27;37.29;99689.16;4260851;33;34738;-65
2023/05/12 00:10:09;;;;;;;4.05;2.00;;;;;;;23.26;37.30;99696.50;4260879;33;33273;-65
2023/05/12 00:12:36;;;;;;;2.72;1.60;;;;;;;23.27;37.27;99690.03;4260840;33;34669;-65
2023/05/12 00:15:04;;;;;;;5.37;1.80;;;;;;;23.26;37.28;99684.78;4261060;33;33806;-64
2023/05/12 00:17:32;;;;;;;5.30;2.00;;;;;;;23.25;37.30;99688.56;4258632;33;34461;-65
2023/05/12 00:20:00;;;;;;;4.25;1.90;;;;;;;23.25;37.31;99688.56;4260602;33;33668;-65
2023/05/12 00:22:27;;;;;;;5.00;1.85;;;;;;;23.26;37.27;99685.62;4259523;33;33959;-65
2023/05/12 00:24:55;;;;;;;4.90;2.10;;;;;;;23.26;37.28;99682.06;4252109;33;34032;-66
2023/05/12 00:27:22;;;;;;;3.20;1.98;;;;;;;23.25;37.33;99685.84;4254691;33;33394;-65
2023/05/12 00:29:50;;;;;;;4.50;1.87;;;;;;;23.25;37.33;99681.25;4246527;33;34319;-65
2023/05/12 00:32:17;;;;;;;4.72;1.90;;;;;;;23.25;37.31;99677.69;4257747;33;34178;-66
2023/05/12 00:34:45;;;;;;;4.03;2.08;;;;;;;23.25;37.34;99674.97;4260853;33;34796;-65
2023/05/12 00:37:12;;;;;;;4.60;2.00;;;;;;;23.24;37.34;99667.88;4260633;33;34581;-65
2023/05/12 00:39:40;;;;;;;5.40;1.87;;;;;;;23.24;37.39;99676.03;4260710;33;34314;-66
2023/05/12 00:42:08;;;;;;;5.00;2.10;;;;;;;23.24;37.38;99673.31;4260645;33;35234;-65
2023/05/12 00:44:35;;;;;;;2.47;1.55;;;;;;;23.23;37.43;99672.47;4248828;33;34561;-66
2023/05/12 00:47:04;;;;;;;5.97;2.30;;;;;;;23.23;37.42;99675.22;4246613;33;33869;-65
2023/05/12 00:49:31;;;;;;;5.37;2.03;;;;;;;23.22;37.42;99669.97;4246512;33;34172;-65
2023/05/12 00:51:58;;;;;;;4.03;1.90;;;;;;;23.23;37.44;99668.94;4246179;33;33570;-65
2023/05/12 00:54:26;;;;;;;4.03;2.10;;;;;;;23.22;37.44;99670.78;4246535;33;34923;-65
2023/05/12 00:56:54;;;;;;;3.50;1.90;;;;;;;23.22;37.43;99664.53;4255584;33;34009;-65
2023/05/12 00:59:22;;;;;;;2.37;1.80;;;;;;;23.21;37.40;99668.31;4260888;33;33112;-66
2023/05/12 01:01:49;;;;;;;4.03;2.08;;;;;;;23.21;37.41;99671.03;4260688;33;34688;-65
2023/05/12 01:04:17;;;;;;;7.40;2.15;;;;;;;23.21;37.50;99662.88;4260588;33;33905;-66
2023/05/12 01:06:59;;;;;;;4.35;2.35;;;;;;;23.21;37.56;99663.69;4260721;33;34923;-65
2023/05/12 01:09:27;;;;;;;4.40;1.73;;;;;;;23.21;37.56;99651.97;4247834;33;33142;-66
2023/05/12 01:11:55;;;;;;;5.55;2.00;;;;;;;23.20;37.54;99659.31;4247902;33;33054;-66
2023/05/12 01:14:23;;;;;;;3.90;2.03;;;;;;;23.21;37.59;99665.59;4260553;33;33696;-65
2023/05/12 01:16:52;;;;;;;3.65;2.17;;;;;;;23.19;37.59;99663.09;4260508;33;33874;-66
2023/05/12 01:19:48;;;;;;;3.78;2.22;;;;;;;23.20;37.59;99663.94;4260587;33;33299;-64
2023/05/12 01:22:16;;;;;;;3.37;1.90;;;;;;;23.20;37.57;99666.66;4260441;33;34637;-64
2023/05/12 01:24:54;;;;;;;3.53;1.83;;;;;;;23.18;37.57;99669.62;4260767;33;33894;-64
2023/05/12 01:27:24;;;;;;;3.45;2.25;;;;;;;23.16;37.59;99667.09;4260487;33;33584;-65
2023/05/12 01:29:52;;;;;;;4.12;2.28;;;;;;;23.17;37.61;99671.50;4259133;33;33460;-65
2023/05/12 01:32:19;;;;;;;2.78;1.73;;;;;;;23.18;37.58;99661.44;4259156;33;34090;-65
2023/05/12 01:34:47;;;;;;;4.03;1.95;;;;;;;23.17;37.57;99662.47;4247636;33;33503;-65
2023/05/12 01:37:15;;;;;;;3.90;2.28;;;;;;;23.18;37.56;99666.91;4260610;33;34346;-64
2023/05/12 01:39:43;;;;;;;3.25;1.70;;;;;;;23.17;37.57;99667.94;4247520;33;33412;-64
2023/05/12 01:42:12;;;;;;;3.77;2.13;;;;;;;23.17;37.58;99667.94;4260562;33;33531;-64
2023/05/12 01:44:40;;;;;;;3.33;2.00;;;;;;;23.17;37.60;99671.50;4260338;33;34641;-65
2023/05/12 01:47:10;;;;;;;3.85;2.10;;;;;;;23.16;37.60;99672.53;4260525;33;33827;-65
2023/05/12 01:49:37;;;;;;;4.30;2.08;;;;;;;23.17;37.61;99673.37;4260238;33;33537;-64
2023/05/12 01:52:05;;;;;;;4.40;1.90;;;;;;;23.15;37.62;99676.34;4260343;33;33795;-65
2023/05/12 01:54:33;;;;;;;5.72;2.20;;;;;;;23.16;37.68;99674.44;4260264;33;33950;-64
2023/05/12 01:57:01;;;;;;;3.37;1.80;;;;;;;23.15;37.69;99670.88;4256324;33;34023;-64
2023/05/12 01:59:28;;;;;;;4.18;2.12;;;;;;;23.15;37.70;99679.06;4246494;33;33763;-65
2023/05/12 02:01:56;;;;;;;4.70;2.00;;;;;;;23.15;37.72;99689.94;4246319;33;34113;-65
2023/05/12 02:04:24;;;;;;;5.40;2.08;;;;;;;23.15;37.74;99678.22;4245712;33;34646;-65
2023/05/12 02:06:52;;;;;;;6.90;1.87;;;;;;;23.15;37.74;99689.13;4246255;33;33820;-65
2023/05/12 02:09:21;;;;;;;5.60;1.77;;;;;;;23.16;37.73;99685.31;4246009;33;33479;-64
2023/05/12 02:11:49;;;;;;;3.70;1.98;;;;;;;23.16;37.73;99688.06;4245971;33;33946;-65
2023/05/12 02:14:17;;;;;;;3.87;2.00;;;;;;;23.15;37.72;99689.94;4246095;33;34440;-65
2023/05/12 02:16:46;;;;;;;4.40;2.30;;;;;;;23.14;37.75;99680.13;4246352;33;33730;-64
2023/05/12 02:19:14;;;;;;;5.50;2.30;;;;;;;23.14;37.72;99677.41;4245923;33;33627;-64
2023/05/12 02:21:41;;;;;;;4.65;1.90;;;;;;;23.15;37.75;99681.78;4245872;33;34694;-64
2023/05/12 02:24:08;;;;;;;4.57;2.17;;;;;;;23.15;37.79;99689.13;4246214;33;34018;-64
2023/05/12 02:26:36;;;;;;;3.92;1.70;;;;;;;23.14;37.76;99692.91;4245833;33;33620;-64
2023/05/12 02:29:03;;;;;;;4.45;1.92;;;;;;;23.13;37.76;99692.06;4246240;33;34254;-64
2023/05/12 02:31:32;;;;;;;3.15;1.87;;;;;;;23.12;37.82;99687.66;4256527;33;33974;-64
2023/05/12 02:34:00;;;;;;;4.28;2.12;;;;;;;23.13;37.79;99689.34;4245931;33;34663;-64
2023/05/12 02:36:29;;;;;;;4.28;2.25;;;;;;;23.12;37.84;99698.56;4246212;33;34513;-65
2023/05/12 02:38:57;;;;;;;7.47;2.28;;;;;;;23.13;37.81;99688.53;4245901;33;34249;-64
2023/05/12 02:41:24;;;;;;;5.30;2.10;;;;;;;23.12;37.81;99687.66;4245995;33;34021;-65
2023/05/12 02:43:52;;;;;;;4.45;1.65;;;;;;;23.12;37.82;99693.09;4256513;33;34661;-65
2023/05/12 02:46:20;;;;;;;3.17;1.92;;;;;;;23.12;37.89;99693.09;4256330;33;34958;-65
2023/05/12 02:48:48;;;;;;;4.57;1.98;;;;;;;23.12;37.83;99687.66;4245381;33;33338;-65
2023/05/12 02:51:16;;;;;;;4.93;2.12;;;;;;;23.12;37.83;99697.72;4245747;33;34422;-65
2023/05/12 02:53:43;;;;;;;3.85;2.03;;;;;;;23.12;37.84;99681.41;4245699;33;33949;-66
2023/05/12 02:56:10;;;;;;;3.40;1.80;;;;;;;23.13;37.87;99688.53;4251538;33;34076;-67
2023/05/12 02:58:39;;;;;;;3.85;1.85;;;;;;;23.12;37.88;99693.09;4259927;33;33424;-65
2023/05/12 03:01:06;;;;;;;4.25;2.03;;;;;;;23.13;37.92;99691.25;4260059;33;34018;-65
2023/05/12 03:03:38;;;;;;;5.47;1.73;;;;;;;23.13;37.96;99691.25;4259867;33;34025;-64
2023/05/12 03:06:06;;;;;;;5.72;1.90;;;;;;;23.13;37.89;99697.50;4259781;33;34008;-65
2023/05/12 03:08:35;;;;;;;4.55;2.40;;;;;;;23.12;37.90;99690.38;4259881;33;33489;-65
2023/05/12 03:11:02;;;;;;;5.55;1.90;;;;;;;23.13;37.90;99696.69;4258493;33;34577;-65
2023/05/12 03:13:30;;;;;;;5.35;2.30;;;;;;;23.13;37.90;99692.06;4259700;33;33382;-65
2023/05/12 03:16:00;;;;;;;4.03;2.25;;;;;;;23.13;37.90;99689.34;4260523;33;34170;-65
2023/05/12 03:18:28;;;;;;;2.87;1.60;;;;;;;23.12;37.94;99693.09;4258384;33;33019;-65
2023/05/12 03:20:56;;;;;;;5.50;2.00;;;;;;;23.12;37.96;99684.94;4273762;33;34669;-65
2023/05/12 03:23:23;;;;;;;6.87;2.33;;;;;;;23.13;37.94;99692.06;4273859;33;34237;-65
2023/05/12 03:25:51;;;;;;;3.33;1.87;;;;;;;23.13;37.93;99686.63;4261756;33;33814;-64
2023/05/12 03:28:19;;;;;;;4.32;1.73;;;;;;;23.14;37.86;99680.13;4260304;33;33734;-64
2023/05/12 03:30:46;;;;;;;3.20;2.00;;;;;;;23.15;37.93;99689.13;4260968;33;33942;-64
2023/05/12 03:33:14;;;;;;;3.05;1.75;;;;;;;23.15;37.93;99689.94;4260557;33;34743;-64
2023/05/12 03:35:44;;;;;;;3.85;1.83;;;;;;;23.15;38.00;99689.94;4260628;33;33983;-65
2023/05/12 03:38:11;;;;;;;3.00;1.73;;;;;;;23.16;38.04;99696.22;4246621;33;33534;-65
2023/05/12 03:40:39;;;;;;;4.40;2.00;;;;;;;23.17;38.08;99692.44;4246491;33;34748;-65
2023/05/12 03:43:08;;;;;;;3.10;1.65;;;;;;;23.16;38.10;99693.50;4246936;33;34005;-65
2023/05/12 03:45:35;;;;;;;4.75;1.90;;;;;;;23.17;38.06;99693.28;4246467;33;34581;-65
2023/05/12 03:48:03;;;;;;;4.35;2.20;;;;;;;23.17;38.08;99687.84;4246689;33;34853;-65
2023/05/12 03:50:30;;;;;;;4.32;1.70;;;;;;;23.17;38.13;99695.16;4245984;33;34433;-65
2023/05/12 03:52:59;;;;;;;4.62;2.25;;;;;;;23.18;38.13;99694.13;4245927;33;34847;-65
2023/05/12 03:55:26;;;;;;;3.17;1.70;;;;;;;23.18;38.13;99699.56;4246879;33;33427;-65
2023/05/12 03:57:54;;;;;;;3.15;1.62;;;;;;;23.18;38.14;99694.13;4260198;33;34068;-65
2023/05/12 04:00:22;;;;;;;6.15;1.83;;;;;;;23.19;38.15;99698.50;4260870;33;33592;-69
2023/05/12 04:02:49;;;;;;;5.30;1.70;;;;;;;23.19;38.17;99698.50;4260854;33;34047;-65
2023/05/12 04:05:17;;;;;;;5.12;1.90;;;;;;;23.19;38.22;99695.78;4260952;33;33848;-68
2023/05/12 04:07:45;;;;;;;4.43;1.92;;;;;;;23.20;38.21;99704.75;4260494;33;33088;-65
2023/05/12 04:10:12;;;;;;;3.45;1.65;;;;;;;23.19;38.15;99703.09;4260428;33;33654;-65
2023/05/12 04:12:40;;;;;;;3.47;1.60;;;;;;;23.20;38.07;99708.31;4260560;33;33280;-64
2023/05/12 04:15:08;;;;;;;2.37;1.50;;;;;;;23.20;38.06;99710.22;4260779;33;34565;-65
2023/05/12 04:17:36;;;;;;;3.22;1.70;;;;;;;23.19;38.04;99705.81;4260850;33;33493;-67
2023/05/12 04:20:04;;;;;;;4.12;1.77;;;;;;;23.17;38.02;99706.03;4260671;33;34613;-65
2023/05/12 04:22:31;;;;;;;9.85;2.37;;;;;;;23.17;38.02;99700.59;4260549;33;33760;-63
2023/05/12 04:24:59;;;;;;;7.90;1.90;;;;;;;23.16;38.07;99716.09;4260416;33;34796;-65
2023/05/12 04:27:26;;;;;;;7.18;2.10;;;;;;;23.18;38.06;99713.16;4260558;33;33326;-64
2023/05/12 04:29:54;;;;;;;3.80;1.50;;;;;;;23.18;38.01;99713.16;4260908;33;33620;-64
2023/05/12 04:32:22;;;;;;;7.30;1.67;;;;;;;23.19;37.92;99708.56;4260928;33;34746;-64
2023/05/12 04:34:50;;;;;;;4.62;1.90;;;;;;;23.19;37.93;99716.72;4247582;33;33059;-64
2023/05/12 04:37:18;;;;;;;7.53;2.12;;;;;;;23.17;37.94;99715.06;4260124;33;34309;-64
2023/05/12 04:39:45;;;;;;;15.93;2.47;;;;;;;23.19;37.94;99727.59;4260899;33;34544;-65
2023/05/12 04:42:13;;;;;;;6.95;2.20;;;;;;;23.18;37.93;99713.16;4260761;33;33893;-64
2023/05/12 04:44:41;;;;;;;10.68;2.03;;;;;;;23.16;37.95;99712.53;4260772;33;33634;-64
2023/05/12 04:47:09;;;;;;;7.65;1.75;;;;;;;23.17;37.95;99719.66;4260659;33;34169;-64
2023/05/12 04:49:36;;;;;;;9.65;1.73;;;;;;;23.17;37.97;99714.19;4260508;33;33602;-64
2023/05/12 04:52:04;;;;;;;6.18;2.03;;;;;;;23.16;37.97;99707.94;4260845;33;33784;-64
2023/05/12 04:54:32;;;;;;;6.22;1.70;;;;;;;23.16;37.98;99721.53;4247792;33;33943;-64
2023/05/12 04:56:59;;;;;;;5.03;1.77;;;;;;;23.16;37.97;99721.53;4256843;33;33823;-64
2023/05/12 04:59:27;;;;;;;8.15;2.17;;;;;;;23.16;37.97;99715.25;4246487;33;33974;-64
2023/05/12 05:01:56;;;;;;;5.40;1.70;;;;;;;23.15;37.97;99717.16;4244904;33;33347;-64
2023/05/12 05:04:23;;;;;;;5.72;1.80;;;;;;;23.16;37.97;99721.53;4264456;33;34113;-63
2023/05/12 05:06:54;;;;;;;6.15;1.85;;;;;;;23.16;37.98;99720.72;4260984;33;32922;-64
2023/05/12 05:09:24;;;;;;;5.78;1.75;;;;;;;23.15;37.98;99721.78;4260586;33;33651;-63
2023/05/12 05:11:52;;;;;;;7.30;2.12;;;;;;;23.14;38.00;99718.22;4259856;33;34798;-63
2023/05/12 05:14:20;;;;;;;3.87;1.85;;;;;;;23.14;38.03;99720.13;4260351;33;34135;-64
2023/05/12 05:16:47;;;;;;;5.45;1.90;;;;;;;23.13;38.04;99727.44;4247994;33;34256;-64
2023/05/12 05:19:15;;;;;;;5.35;1.62;;;;;;;23.13;38.04;99722.00;4260465;33;33798;-64
2023/05/12 05:21:56;;;;;;;6.57;1.73;;;;;;;23.13;38.04;99724.72;4249268;33;34712;-64
2023/05/12 05:24:24;;;;;;;8.45;2.05;;;;;;;23.14;38.04;99731.00;4260462;33;33954;-64
2023/05/12 05:26:51;;;;;;;4.40;1.75;;;;;;;23.12;38.08;99728.50;4260481;33;34138;-64
2023/05/12 05:29:19;;;;;;;3.47;1.37;;;;;;;23.12;38.09;99728.50;4260831;33;33540;-64
2023/05/12 05:31:47;;;;;;;4.68;1.60;;;;;;;23.12;38.11;99727.66;4260376;33;33719;-63
2023/05/12 05:34:15;;;;;;;6.45;1.50;;;;;;;23.13;38.11;99729.34;4260398;33;33985;-64
2023/05/12 05:36:43;;;;;;;4.25;1.62;;;;;;;23.12;38.12;99730.38;4260665;33;34216;-66
2023/05/12 05:39:11;;;;;;;3.30;1.60;;;;;;;23.12;38.13;99727.66;4259612;33;33874;-67
2023/05/12 05:41:39;;;;;;;4.78;1.85;;;;;;;23.11;38.13;99726.84;4260212;33;35676;-65
2023/05/12 05:44:07;;;;;;;3.58;1.60;;;;;;;23.11;38.11;99740.44;4260695;33;33865;-66
2023/05/12 05:46:34;;;;;;;4.30;1.60;;;;;;;23.13;38.10;99732.06;4260481;33;33444;-66
2023/05/12 05:49:02;;;;;;;3.72;1.50;;;;;;;23.11;38.11;99734.16;4260438;33;34756;-66
2023/05/12 05:51:30;;;;;;;4.12;1.80;;;;;;;23.12;38.09;99742.09;4260684;33;34861;-66
2023/05/12 05:53:58;;;;;;;4.37;1.58;;;;;;;23.13;38.07;99740.22;4260313;33;33645;-66
2023/05/12 05:56:26;;;;;;;3.67;1.42;;;;;;;23.12;38.05;99742.09;4260599;33;32929;-67
2023/05/12 05:58:54;;;;;;;3.40;1.20;;;;;;;23.13;38.03;99745.69;4260349;33;33932;-67
2023/05/12 06:01:21;;;;;;;5.07;1.50;;;;;;;23.12;38.04;99747.53;4260172;33;33930;-66
2023/05/12 06:03:51;;;;;;;5.10;1.92;;;;;;;23.12;38.02;99744.00;4258300;33;33773;-66
2023/05/12 06:06:18;;;;;;;4.15;2.35;;;;;;;23.12;38.04;99747.53;4259371;33;33529;-67
2023/05/12 06:08:46;;;;;;;6.20;1.60;;;;;;;23.12;38.04;99749.44;4260233;33;33863;-65
2023/05/12 06:11:15;;;;;;;3.12;1.42;;;;;;;23.11;38.06;99756.78;4258657;33;34823;-71
2023/05/12 06:13:44;;;;;;;;;;;;;;;23.11;38.04;99754.03;4260311;33;33784;-65
2023/05/12 06:16:11;;;;;;;4.80;1.48;;;;;;;23.19;37.89;99752.09;4260206;33;32863;-65
2023/05/12 06:18:40;;;;;;;5.32;1.65;;;;;;;23.11;37.98;99751.31;4260209;33;34576;-69
2023/05/12 06:21:08;;;;;;;2.53;1.62;;;;;;;23.08;38.03;99759.09;4260088;33;33678;-67
2023/05/12 06:23:36;;;;;;;3.58;1.73;;;;;;;23.07;38.04;99752.84;4258963;33;33869;-67
2023/05/12 06:26:06;;;;;;;4.62;1.60;;;;;;;23.07;38.04;99754.72;4260154;33;34162;-68
2023/05/12 06:28:33;;;;;;;;;;;;;;;23.07;38.03;99752.00;4259939;33;34016;-67
2023/05/12 06:31:01;;;;;;;4.30;1.55;;;;;;;23.17;37.88;99757.75;4256615;33;109788;-67
2023/05/12 06:33:29;;;;;;;4.30;1.87;;;;;;;23.09;38.01;99752.62;4259611;33;33955;-68
2023/05/12 06:35:56;;;;;;;5.05;1.92;;;;;;;23.07;38.06;99752.84;4259543;33;32885;-66
2023/05/12 06:38:24;;;;;;;5.40;1.85;;;;;;;23.05;38.11;99752.22;4260014;33;33803;-67
2023/05/12 06:40:52;;;;;;;4.10;1.75;;;;;;;23.06;38.11;99758.50;4260080;33;33659;-66
2023/05/12 06:43:19;;;;;;;3.47;1.75;;;;;;;23.06;38.08;99759.34;4259656;33;33766;-65
2023/05/12 06:45:47;;;;;;;5.07;1.60;;;;;;;23.06;38.08;99756.63;4259858;33;34269;-67
2023/05/12 06:48:15;;;;;;;9.13;2.17;;;;;;;23.06;38.06;99748.44;4259829;33;34141;-65
2023/05/12 06:50:42;;;;;;;2.72;1.60;;;;;;;23.06;38.03;99747.63;4259684;33;34667;-67
2023/05/12 06:53:10;;;;;;;3.30;1.20;;;;;;;23.06;38.03;99743.00;4259860;33;33965;-68
2023/05/12 06:55:37;;;;;;;5.10;1.70;;;;;;;23.06;38.03;99748.44;4259861;33;34280;-70
2023/05/12 06:58:05;;;;;;;5.82;1.95;;;;;;;23.06;38.02;99756.63;4259396;33;33951;-65
2023/05/12 07:00:33;;;;;;;3.62;1.70;;;;;;;23.07;38.02;99760.16;4259273;33;33659;-67
2023/05/12 07:03:01;;;;;;;5.50;2.25;;;;;;;23.06;38.07;99758.50;4258695;33;33698;-66
2023/05/12 07:05:29;;;;;;;4.15;1.90;;;;;;;23.07;38.15;99758.28;4259713;33;34201;-68
2023/05/12 07:07:56;;;;;;;3.83;1.90;;;;;;;23.07;38.24;99755.56;4258159;33;34836;-67
2023/05/12 07:10:24;;;;;;;4.97;1.87;;;;;;;23.06;38.26;99753.91;4258464;33;34676;-68
2023/05/12 07:12:52;;;;;;;5.07;2.00;;;;;;;23.07;38.16;99754.72;4258090;33;33910;-64
2023/05/12 07:15:19;;;;;;;4.53;2.20;;;;;;;23.07;38.14;99757.44;4269678;33;33364;-64
2023/05/12 07:17:47;;;;;;;5.60;2.83;;;;;;;23.07;38.19;99752.84;4273689;33;34335;-67
2023/05/12 07:20:15;;;;;;;6.05;2.62;;;;;;;23.06;38.25;99755.78;4273642;33;34461;-65
2023/05/12 07:22:43;;;;;;;4.22;2.30;;;;;;;23.05;38.33;99752.22;4269807;33;34076;-67
2023/05/12 07:25:11;;;;;;;5.72;2.22;;;;;;;23.06;38.39;99761.22;4259700;33;33370;-64
2023/05/12 07:27:39;;;;;;;5.15;2.65;;;;;;;23.06;38.39;99759.34;4259366;33;34730;-66
2023/05/12 07:30:07;;;;;;;6.72;2.85;;;;;;;23.06;38.48;99758.50;4259596;33;34929;-67
2023/05/12 07:32:35;;;;;;;6.28;2.58;;;;;;;23.04;38.44;99756.03;4259522;33;34320;-66
2023/05/12 07:35:02;;;;;;;5.97;2.50;;;;;;;23.06;38.50;99756.63;4259227;33;33363;-67
2023/05/12 07:37:31;;;;;;;6.85;2.30;;;;;;;23.05;38.56;99757.69;4259392;33;33991;-66
2023/05/12 07:39:58;;;;;;;5.18;2.45;;;;;;;23.06;38.62;99755.78;4258025;33;33805;-65
2023/05/12 07:42:26;;;;;;;4.85;2.00;;;;;;;23.07;38.67;99752.84;4258990;33;35011;-66
2023/05/12 07:44:53;;;;;;;5.62;2.45;;;;;;;23.08;38.68;99759.97;4259514;33;33666;-66
2023/05/12 07:47:21;;;;;;;3.95;2.20;;;;;;;23.09;38.70;99761.62;4259244;33;33879;-67
2023/05/12 07:49:48;;;;;;;5.00;2.17;;;;;;;23.11;38.72;99764.94;4258938;33;34755;-65
2023/05/12 07:52:16;;;;;;;3.45;1.87;;;;;;;23.13;38.76;99767.44;4263562;33;33961;-67
2023/05/12 07:54:43;;;;;;;3.78;2.12;;;;;;;23.12;38.78;99758.44;4263003;33;32777;-67
2023/05/12 07:57:11;;;;;;;3.45;1.85;;;;;;;23.13;38.77;99760.13;4259478;33;33920;-66
2023/05/12 07:59:39;;;;;;;4.37;2.00;;;;;;;23.15;38.77;99762.59;4273342;33;33829;-66
2023/05/12 08:02:07;;;;;;;2.75;1.50;;;;;;;23.15;38.76;99765.31;4269908;33;34661;-65
2023/05/12 08:04:35;;;;;;;3.70;1.85;;;;;;;23.16;38.77;99767.81;4275021;33;33598;-68
2023/05/12 08:07:02;;;;;;;4.70;2.10;;;;;;;23.17;38.76;99765.91;4261891;33;33816;-65
2023/05/12 08:09:30;;;;;;;2.75;1.67;;;;;;;23.16;38.74;99762.38;4268012;33;34785;-65
2023/05/12 08:11:57;;;;;;;4.12;1.85;;;;;;;23.18;38.73;99773.06;4256762;33;33095;-66
2023/05/12 08:14:25;;;;;;;4.18;2.20;;;;;;;23.17;38.67;99766.78;4250218;33;33011;-66
2023/05/12 08:16:53;;;;;;;5.68;2.10;;;;;;;23.18;38.70;99775.78;4261108;33;33915;-67
2023/05/12 08:19:21;;;;;;;3.15;1.90;;;;;;;23.17;38.62;99774.94;4260922;33;33362;-66
2023/05/12 08:21:48;;;;;;;4.95;2.10;;;;;;;23.19;38.58;99780.16;4260910;33;34831;-66
2023/05/12 08:24:16;;;;;;;6.28;2.20;;;;;;;23.18;38.51;99775.78;4260643;33;34330;-66
2023/05/12 08:26:43;;;;;;;4.05;2.22;;;;;;;23.18;38.52;99770.31;4260806;33;33797;-67
2023/05/12 08:29:11;;;;;;;4.85;2.03;;;;;;;23.19;38.47;99776.59;4253380;33;34163;-66
2023/05/12 08:31:38;;;;;;;5.40;2.10;;;;;;;23.17;38.46;99777.66;4246543;33;34104;-66
2023/05/12 08:34:06;;;;;;;4.55;2.00;;;;;;;23.19;38.41;99784.75;4258870;33;33980;-66
2023/05/12 08:36:38;;;;;;;3.67;2.17;;;;;;;23.18;38.40;99783.94;4260994;33;34021;-66
2023/05/12 08:39:07;;;;;;;4.62;2.30;;;;;;;23.19;38.42;99790.22;4260608;33;34746;-68
2023/05/12 08:42:09;;;;;;;4.22;2.00;;;;;;;23.17;38.42;99783.09;4259694;33;33893;-65
2023/05/12 08:44:37;;;;;;;4.22;2.10;;;;;;;23.20;38.42;99786.41;4236581;33;32933;-66
2023/05/12 08:47:04;;;;;;;4.15;2.03;;;;;;;23.19;38.43;99791.03;4247620;33;33388;-67
2023/05/12 08:49:34;;;;;;;6.45;2.33;;;;;;;23.20;38.45;99791.88;4260408;33;34472;-67
2023/05/12 08:52:02;;;;;;;4.32;2.28;;;;;;;23.17;38.44;99791.28;4259717;33;34592;-68
2023/05/12 08:54:30;;;;;;;3.67;2.10;;;;;;;23.19;38.35;99787.50;4260960;33;33451;-67
2023/05/12 08:56:57;;;;;;;4.28;2.20;;;;;;;23.16;38.41;99788.75;4260592;33;34232;-68
2023/05/12 08:59:27;;;;;;;4.80;2.85;;;;;;;23.17;38.42;99790.41;4248192;33;34813;-68
2023/05/12 09:01:55;;;;;;;6.90;2.90;;;;;;;23.17;38.46;99790.41;4260298;33;34671;-66
2023/05/12 09:04:23;;;;;;;4.30;2.30;;;;;;;23.15;38.46;99789.81;4259371;33;33482;-67
2023/05/12 09:06:50;;;;;;;5.32;2.60;;;;;;;23.17;38.47;99793.13;4260683;33;34648;-67
2023/05/12 09:09:22;;;;;;;3.35;2.10;;;;;;;23.17;38.47;99806.75;4260698;33;34179;-68
2023/05/12 09:12:11;;;;;;;8.40;2.85;;;;;;;23.16;38.44;99807.81;4259383;33;33812;-68
2023/05/12 09:14:41;;;;;;;4.93;2.37;;;;;;;23.16;38.41;99810.53;4259243;33;34381;-68
2023/05/12 09:17:09;;;;;;;4.18;2.10;;;;;;;23.16;38.38;99808.63;4247545;33;33464;-66
2023/05/12 09:19:36;;;;;;;4.78;2.08;;;;;;;23.15;38.44;99806.16;4260658;33;33602;-68
2023/05/12 09:22:04;;;;;;;4.12;2.10;;;;;;;23.16;38.79;99813.25;4260247;33;34134;-68
2023/05/12 09:24:38;;;;;;;4.93;2.15;;;;;;;23.16;39.02;99818.69;4259941;33;33516;-68
2023/05/12 09:27:06;;;;;;;3.45;1.95;;;;;;;23.17;38.90;99823.06;4259388;33;33730;-68
2023/05/12 09:29:33;;;;;;;4.30;1.95;;;;;;;23.17;38.99;99820.34;4247530;33;34684;-68
2023/05/12 09:32:14;;;;;;;4.03;1.92;;;;;;;23.19;39.09;99817.44;4259621;33;33992;-68
2023/05/12 09:34:42;;;;;;;4.43;1.80;;;;;;;23.19;39.16;99822.88;4260298;33;33870;-67
2023/05/12 09:37:09;;;;;;;6.18;2.30;;;;;;;23.20;39.19;99832.69;4259077;33;33390;-66
2023/05/12 09:39:39;;;;;;;3.00;1.75;;;;;;;23.21;39.18;99826.19;4260362;33;34154;-68
2023/05/12 09:42:11;;;;;;;4.32;2.03;;;;;;;23.22;39.16;99834.13;4260304;33;34740;-65
2023/05/12 09:44:40;;;;;;;4.68;1.83;;;;;;;23.24;39.17;99831.19;4259323;33;33576;-67
2023/05/12 09:47:09;;;;;;;3.92;1.92;;;;;;;23.25;39.15;99830.12;4260308;33;34568;-67
2023/05/12 09:49:37;;;;;;;4.60;1.98;;;;;;;23.26;39.14;99829.06;4258924;33;34984;-67
2023/05/12 09:52:05;;;;;;;5.85;1.98;;;;;;;23.26;39.12;99829.91;4260218;33;33969;-66
2023/05/12 09:54:33;;;;;;;3.00;1.58;;;;;;;23.28;39.10;99833.25;4260267;33;33020;-69
2023/05/12 09:57:02;;;;;;;4.28;2.05;;;;;;;23.29;39.08;99829.47;4260166;33;34011;-68
2023/05/12 09:59:34;;;;;;;3.90;1.98;;;;;;;23.31;39.05;99831.94;4260241;33;34559;-65
2023/05/12 10:02:04;;;;;;;6.43;2.25;;;;;;;23.32;39.03;99830.91;4234630;33;33981;-65
2023/05/12 10:04:40;;;;;;;3.85;1.90;;;;;;;23.32;39.03;99830.91;4235740;33;33111;-66
2023/05/12 10:07:08;;;;;;;3.53;1.80;;;;;;;23.34;39.03;99824.16;4260276;33;33918;-68
2023/05/12 10:09:38;;;;;;;4.10;1.90;;;;;;;23.36;39.06;99826.66;4257353;33;34683;-67
2023/05/12 10:12:05;;;;;;;2.83;1.52;;;;;;;23.37;39.13;99831.06;4246290;33;34005;-66
2023/05/12 10:14:34;;;;;;;6.78;2.25;;;;;;;23.38;39.18;99822.66;4258685;33;34435;-68
2023/05/12 10:17:02;;;;;;;4.75;1.80;;;;;;;23.39;39.26;99820.78;4258555;33;34120;-68
2023/05/12 10:19:29;;;;;;;3.75;1.87;;;;;;;23.39;39.31;99818.87;4258463;33;33524;-68
2023/05/12 10:21:57;;;;;;;3.22;1.48;;;;;;;23.42;39.31;99817.59;4259740;33;33816;-66
2023/05/12 10:24:28;;;;;;;5.68;2.10;;;;;;;23.41;39.38;99810.50;4257569;33;33590;-67
2023/05/12 10:26:56;;;;;;;4.20;2.25;;;;;;;23.42;39.42;99812.16;4247537;33;33984;-68
2023/05/12 10:29:28;;;;;;;5.00;2.35;;;;;;;23.43;39.44;99814.66;4257529;33;34745;-66
2023/05/12 10:31:57;;;;;;;5.62;2.15;;;;;;;23.44;39.50;99815.47;4245796;33;34376;-67
2023/05/12 10:34:35;;;;;;;7.25;2.10;;;;;;;23.45;39.55;99819.84;4259161;33;33362;-68
2023/05/12 10:37:07;;;;;;;4.95;1.87;;;;;;;23.47;39.55;99825.09;4257450;33;33664;-68
2023/05/12 10:39:34;;;;;;;7.07;2.00;;;;;;;23.46;39.61;99823.44;4260046;33;34042;-68
2023/05/12 10:42:05;;;;;;;4.87;2.70;;;;;;;23.47;39.64;99830.53;4258467;33;33997;-66
2023/05/12 10:44:34;;;;;;;4.68;1.87;;;;;;;23.47;39.69;99823.19;4259889;33;32791;-66
2023/05/12 10:47:02;;;;;;;6.18;2.03;;;;;;;23.47;39.74;99828.66;4246702;33;34787;-68
2023/05/12 10:49:36;;;;;;;3.87;2.17;;;;;;;23.47;39.85;99825.94;4246858;33;34979;-68
2023/05/12 10:52:04;;;;;;;6.68;2.50;;;;;;;23.47;39.94;99828.66;4245618;33;33730;-68
2023/05/12 10:54:40;;;;;;;4.80;2.00;;;;;;;23.48;39.96;99824.84;4259953;33;34154;-68
2023/05/12 10:57:15;;;;;;;5.62;2.28;;;;;;;23.48;40.01;99827.59;4246282;33;34669;-67
2023/05/12 10:59:48;;;;;;;3.92;2.00;;;;;;;23.49;40.06;99828.41;4258990;33;34179;-67
2023/05/12 11:02:18;;;;;;;4.20;2.28;;;;;;;23.48;40.10;99833.03;4258208;33;35049;-67
2023/05/12 11:04:48;;;;;;;8.25;2.33;;;;;;;23.47;40.14;99836.81;4257177;33;33639;-66
2023/05/12 11:07:20;;;;;;;4.93;2.67;;;;;;;23.48;40.09;99843.09;4255840;33;34025;-65
2023/05/12 11:09:49;;;;;;;6.55;2.30;;;;;;;23.46;40.06;99837.06;4258405;33;35365;-68
2023/05/12 11:12:36;;;;;;;5.10;2.22;;;;;;;23.46;40.18;99837.88;4258594;33;34024;-65
2023/05/12 11:15:05;;;;;;;5.95;2.30;;;;;;;23.46;40.24;99840.59;4258378;33;34257;-65
2023/05/12 11:17:36;;;;;;;4.80;2.17;;;;;;;23.47;40.28;99838.72;4259675;33;34158;-65
2023/05/12 11:20:06;;;;;;;4.62;2.22;;;;;;;23.46;40.34;99826.16;4258177;33;34824;-66
2023/05/12 11:22:33;;;;;;;6.80;2.62;;;;;;;23.46;40.42;99828.88;4259542;33;33610;-67
2023/05/12 11:25:08;;;;;;;6.95;2.10;;;;;;;23.46;40.46;99837.06;4259500;33;34205;-66
2023/05/12 11:27:41;;;;;;;6.90;2.10;;;;;;;23.47;40.50;99830.53;4258058;33;33476;-68
2023/05/12 11:30:10;;;;;;;4.72;2.15;;;;;;;23.45;40.61;99833.47;4259465;33;34647;-65
2023/05/12 11:32:37;;;;;;;7.00;2.40;;;;;;;23.45;40.67;99825.31;4259394;33;34567;-67
2023/05/12 11:35:12;;;;;;;5.62;2.30;;;;;;;23.46;40.67;99827.00;4259492;33;33538;-65
2023/05/12 11:37:41;;;;;;;4.40;2.15;;;;;;;23.45;40.72;99822.56;4259586;33;33881;-67
2023/05/12 11:40:19;;;;;;;5.18;2.25;;;;;;;23.44;40.80;99826.37;4260962;33;33901;-65